createdAt,value
2018-12-03T00:03:32.111Z,89.50
2018-12-03T00:09:01.858Z,89.60
2018-12-03T00:14:31.389Z,89.80
2018-12-03T00:20:01.110Z,89.90
2018-12-03T00:25:30.854Z,89.90
2018-12-03T00:31:00.917Z,90.10
2018-12-03T00:36:30.623Z,90.20
2018-12-03T00:42:00.350Z,90.30
2018-12-03T00:47:30.043Z,90.40
2018-12-03T00:52:59.644Z,90.30
2018-12-03T00:58:30.342Z,90.30
2018-12-03T01:04:00.027Z,90.30
2018-12-03T01:09:32.281Z,90.30
2018-12-03T01:15:02.261Z,90.10
2018-12-03T01:20:31.774Z,90.20
2018-12-03T01:26:02.291Z,89.90
2018-12-03T01:31:32.544Z,89.60
2018-12-03T01:37:02.092Z,89.20
2018-12-03T01:42:31.778Z,88.40
2018-12-03T01:48:01.313Z,87.90
2018-12-03T01:53:31.106Z,87.70
2018-12-03T01:59:00.699Z,87.30
2018-12-03T02:04:30.256Z,86.90
2018-12-03T02:10:00.121Z,86.70
2018-12-03T02:15:30.245Z,86.30
2018-12-03T02:21:00.059Z,85.90
2018-12-03T02:26:29.638Z,85.40
2018-12-03T02:31:59.586Z,85.20
2018-12-03T02:37:29.277Z,84.70
2018-12-03T02:42:58.799Z,84.50
2018-12-03T02:48:28.614Z,84.20
2018-12-03T02:53:58.104Z,83.90
2018-12-03T02:59:28.101Z,83.60
2018-12-03T03:04:58.292Z,83.60
2018-12-03T03:10:27.779Z,83.80
2018-12-03T03:15:57.507Z,84.40
2018-12-03T03:21:26.851Z,85.00
2018-12-03T03:26:56.556Z,86.50
2018-12-03T03:32:26.464Z,86.60
2018-12-03T03:37:56.383Z,86.80
2018-12-03T03:43:26.422Z,87.10
2018-12-03T03:48:56.324Z,87.20
2018-12-03T03:54:25.804Z,87.20
2018-12-03T03:59:55.267Z,87.30
2018-12-03T04:05:24.575Z,87.40
2018-12-03T04:10:54.138Z,87.40
2018-12-03T04:16:23.496Z,86.40
2018-12-03T04:21:52.970Z,86.30
2018-12-03T04:27:22.262Z,86.10
2018-12-03T04:32:52.956Z,86.00
2018-12-03T04:38:22.464Z,85.80
2018-12-03T04:43:52.752Z,85.60
2018-12-03T04:49:22.976Z,85.50
2018-12-03T04:54:52.433Z,85.20
2018-12-03T05:00:22.488Z,84.80
2018-12-03T05:05:51.963Z,84.60
2018-12-03T05:11:21.575Z,84.60
2018-12-03T05:16:51.118Z,84.30
2018-12-03T05:22:20.480Z,84.00
2018-12-03T05:27:50.920Z,84.00
2018-12-03T05:33:20.324Z,84.00
2018-12-03T05:38:50.036Z,83.80
2018-12-03T05:44:19.710Z,83.60
2018-12-03T05:49:49.175Z,83.50
2018-12-03T05:55:18.698Z,83.70
2018-12-03T06:00:48.342Z,83.60
2018-12-03T06:06:17.909Z,83.60
2018-12-03T06:11:47.449Z,83.40
2018-12-03T06:17:16.786Z,83.30
2018-12-03T06:22:46.763Z,83.30
2018-12-03T06:28:16.600Z,83.00
2018-12-03T06:33:46.084Z,83.10
2018-12-03T06:39:15.540Z,83.20
2018-12-03T06:44:45.029Z,83.20
2018-12-03T06:50:14.718Z,83.20
2018-12-03T06:55:44.152Z,83.30
2018-12-03T07:01:13.912Z,83.40
2018-12-03T07:06:43.282Z,83.30
2018-12-03T07:12:12.861Z,83.30
2018-12-03T07:17:42.317Z,83.40
2018-12-03T07:23:12.169Z,83.30
2018-12-03T07:28:41.666Z,83.00
2018-12-03T07:34:11.056Z,82.70
2018-12-03T07:39:40.619Z,82.40
2018-12-03T07:45:19.787Z,82.20
2018-12-03T07:50:49.263Z,82.30
2018-12-03T07:56:18.593Z,82.30
2018-12-03T08:01:48.107Z,82.20
2018-12-03T08:07:17.598Z,82.00
2018-12-03T08:12:48.723Z,82.00
2018-12-03T08:18:20.396Z,81.50
2018-12-03T08:24:03.148Z,81.40
2018-12-03T08:29:32.820Z,81.80
2018-12-03T08:35:02.572Z,80.80
2018-12-03T08:40:32.159Z,80.40
2018-12-03T08:46:03.548Z,80.30
2018-12-03T08:51:33.581Z,80.10
2018-12-03T08:57:03.562Z,80.20
2018-12-03T09:02:33.169Z,79.50
2018-12-03T09:08:02.986Z,79.60
2018-12-03T09:13:32.566Z,79.30
2018-12-03T09:19:02.250Z,79.20
2018-12-03T09:24:31.843Z,78.90
2018-12-03T09:30:01.752Z,78.60
2018-12-03T09:35:31.510Z,78.40
2018-12-03T09:41:01.966Z,78.10
2018-12-03T09:46:31.554Z,77.90
2018-12-03T09:52:01.118Z,77.90
2018-12-03T09:57:30.917Z,77.80
2018-12-03T10:03:03.048Z,77.50
2018-12-03T10:08:33.014Z,77.10
2018-12-03T10:14:02.659Z,76.80
2018-12-03T10:19:32.391Z,76.80
2018-12-03T10:25:14.767Z,76.30
2018-12-03T10:30:44.742Z,75.50
2018-12-03T10:36:14.209Z,75.30
2018-12-03T10:41:43.649Z,74.80
2018-12-03T10:47:13.217Z,74.60
2018-12-03T10:52:42.650Z,74.00
2018-12-03T10:58:14.895Z,73.60
2018-12-03T11:03:49.753Z,72.90
2018-12-03T11:09:19.254Z,73.30
2018-12-03T11:14:48.708Z,73.10
2018-12-03T11:20:18.285Z,72.80
2018-12-03T11:25:47.747Z,72.70
2018-12-03T11:31:25.449Z,72.10
2018-12-03T11:37:03.037Z,72.30
2018-12-03T11:42:36.349Z,72.00
2018-12-03T11:48:06.334Z,71.60
2018-12-03T11:53:39.473Z,71.10
2018-12-03T11:59:09.213Z,70.60
2018-12-03T12:04:38.669Z,70.00
2018-12-03T12:10:10.074Z,69.70
2018-12-03T12:15:39.500Z,69.70
2018-12-03T12:21:09.075Z,69.20
2018-12-03T12:26:38.619Z,68.90
2018-12-03T12:32:08.235Z,69.10
2018-12-03T12:37:38.875Z,68.50
2018-12-03T12:43:09.367Z,68.00
2018-12-03T12:48:38.812Z,68.10
2018-12-03T12:54:08.630Z,67.50
2018-12-03T12:59:38.265Z,67.60
2018-12-03T13:05:08.535Z,67.40
2018-12-03T13:10:38.165Z,67.80
2018-12-03T13:16:07.682Z,67.90
2018-12-03T13:21:37.367Z,68.00
2018-12-03T13:27:08.325Z,68.20
2018-12-03T13:32:37.742Z,68.50
2018-12-03T13:38:07.433Z,68.60
2018-12-03T13:43:36.903Z,69.00
2018-12-03T13:49:07.767Z,68.90
2018-12-03T13:54:37.309Z,69.60
2018-12-03T14:00:13.263Z,69.00
2018-12-03T14:06:14.633Z,69.00
2018-12-03T14:12:14.044Z,68.90
2018-12-03T14:18:14.680Z,68.60
2018-12-03T14:23:45.184Z,68.60
2018-12-03T14:29:14.689Z,68.80
2018-12-03T14:34:44.274Z,68.90
2018-12-03T14:40:13.668Z,69.20
2018-12-03T14:45:43.235Z,69.30
2018-12-03T14:51:12.676Z,69.30
2018-12-03T14:56:42.447Z,69.70
2018-12-03T15:02:11.923Z,69.90
2018-12-03T15:07:41.537Z,70.00
2018-12-03T15:13:10.944Z,70.10
2018-12-03T15:18:40.487Z,70.30
2018-12-03T15:24:13.428Z,70.40
2018-12-03T15:29:39.618Z,70.50
2018-12-03T15:35:10.875Z,70.50
2018-12-03T15:40:40.204Z,70.60
2018-12-03T15:46:10.523Z,70.80
2018-12-03T15:51:39.994Z,70.60
2018-12-03T15:57:09.423Z,70.40
2018-12-03T16:02:39.096Z,70.30
2018-12-03T16:08:08.498Z,70.50
2018-12-03T16:13:38.155Z,70.60
2018-12-03T16:19:07.810Z,70.60
2018-12-03T16:24:38.658Z,70.50
2018-12-03T16:30:12.534Z,71.20
2018-12-03T16:35:42.226Z,70.70
2018-12-03T16:41:11.831Z,70.90
2018-12-03T16:46:41.750Z,71.00
2018-12-03T16:52:11.598Z,71.00
2018-12-03T16:57:41.255Z,71.00
2018-12-03T17:03:10.603Z,70.80
2018-12-03T17:08:39.926Z,70.70
2018-12-03T17:14:09.543Z,70.70
2018-12-03T17:19:39.072Z,70.70
2018-12-03T17:25:19.439Z,70.60
2018-12-03T17:30:49.063Z,70.50
2018-12-03T17:36:18.751Z,70.50
2018-12-03T17:42:28.288Z,70.20
2018-12-03T17:47:56.527Z,70.20
2018-12-03T17:53:24.952Z,70.20
2018-12-03T17:59:20.917Z,70.10
2018-12-03T18:04:51.222Z,70.10
2018-12-03T18:10:19.445Z,70.50
2018-12-03T18:15:47.653Z,71.30
2018-12-03T18:21:15.943Z,70.90
2018-12-03T18:26:44.209Z,71.00
2018-12-03T18:32:14.666Z,70.90
2018-12-03T18:37:42.736Z,70.70
2018-12-03T18:43:10.803Z,71.20
2018-12-03T18:48:38.871Z,69.90
2018-12-03T18:54:06.939Z,69.40
2018-12-03T18:59:36.026Z,68.80
2018-12-03T19:05:05.071Z,68.40
2018-12-03T19:10:33.167Z,68.20
2018-12-03T19:16:01.272Z,68.00
2018-12-03T19:21:29.358Z,67.70
2018-12-03T19:26:57.442Z,67.50
2018-12-03T19:32:25.602Z,67.60
2018-12-03T19:37:53.684Z,67.50
2018-12-03T19:43:21.750Z,67.40
2018-12-03T19:48:49.833Z,67.20
2018-12-03T19:54:18.008Z,67.20
2018-12-03T19:59:46.082Z,66.80
2018-12-03T20:05:17.147Z,66.50
2018-12-03T20:10:45.318Z,66.10
2018-12-03T20:16:13.381Z,65.60
2018-12-03T20:21:41.507Z,64.80
2018-12-03T20:27:09.693Z,64.00
2018-12-03T20:32:38.545Z,64.30
2018-12-03T20:38:06.733Z,66.50
2018-12-03T20:43:34.866Z,68.90
2018-12-03T20:49:07.874Z,71.10
2018-12-03T20:54:35.966Z,73.10
2018-12-03T21:00:06.130Z,74.20
2018-12-03T21:05:35.249Z,74.60
2018-12-03T21:11:03.315Z,76.90
2018-12-03T21:16:31.381Z,77.90
2018-12-03T21:22:00.491Z,78.80
2018-12-03T21:27:28.654Z,79.00
2018-12-03T21:32:56.732Z,79.50
2018-12-03T21:38:24.820Z,79.90
2018-12-03T21:43:52.878Z,79.80
2018-12-03T21:49:20.971Z,79.90
2018-12-03T21:54:49.191Z,80.00
2018-12-03T22:00:18.106Z,79.80
2018-12-03T22:05:46.175Z,79.50
2018-12-03T22:11:14.371Z,79.50
2018-12-03T22:16:42.439Z,80.50
2018-12-03T22:22:11.526Z,81.30
2018-12-03T22:27:43.867Z,82.40
2018-12-03T22:33:12.302Z,82.70
2018-12-03T22:38:40.413Z,82.60
2018-12-03T22:44:08.923Z,82.20
2018-12-03T22:49:37.223Z,81.30
2018-12-03T22:55:05.681Z,80.70
2018-12-03T23:00:36.979Z,80.00
2018-12-03T23:06:05.192Z,79.40
2018-12-03T23:11:33.333Z,78.40
2018-12-03T23:17:01.497Z,77.40
2018-12-03T23:22:29.682Z,76.50
2018-12-03T23:27:57.746Z,75.00
2018-12-03T23:33:25.809Z,74.70
2018-12-03T23:38:53.880Z,74.50
2018-12-03T23:44:21.962Z,74.00
2018-12-03T23:49:50.031Z,73.50
2018-12-03T23:55:18.093Z,73.20
